createdAt,value
2022-12-03T00:02:15.575Z,71.80
2022-12-03T00:05:20.346Z,71.60
2022-12-03T00:08:45.726Z,71.60
2022-12-03T00:18:20.811Z,71.50
2022-12-03T00:21:27.526Z,71.30
2022-12-03T00:24:46.811Z,71.90
2022-12-03T00:27:57.636Z,70.50
2022-12-03T00:31:27.461Z,70.70
2022-12-03T00:37:57.800Z,70.50
2022-12-03T00:41:17.421Z,70.80
2022-12-03T00:44:19.110Z,70.70
2022-12-03T00:47:20.493Z,70.40
2022-12-03T00:50:22.286Z,70.70
2022-12-03T00:53:25.781Z,71.10
2022-12-03T00:56:23.578Z,71.40
2022-12-03T00:59:30.618Z,71.70
2022-12-03T01:02:34.227Z,71.10
2022-12-03T01:05:40.289Z,71.30
2022-12-03T01:08:48.352Z,71.30
2022-12-03T01:11:59.689Z,71.00
2022-12-03T01:14:58.063Z,71.10
2022-12-03T01:18:06.502Z,71.30
2022-12-03T01:21:10.048Z,71.10
2022-12-03T01:23:58.684Z,70.90
2022-12-03T01:26:47.151Z,70.70
2022-12-03T01:29:35.641Z,70.50
2022-12-03T01:32:23.056Z,70.50
2022-12-03T01:35:12.892Z,70.60
2022-12-03T01:38:01.360Z,70.80
2022-12-03T01:40:50.245Z,71.20
2022-12-03T01:43:44.364Z,71.20
2022-12-03T01:49:39.349Z,71.60
2022-12-03T01:52:32.465Z,71.50
2022-12-03T01:55:22.484Z,71.70
2022-12-03T01:58:11.604Z,71.50
2022-12-03T02:01:01.118Z,71.70
2022-12-03T02:03:49.364Z,71.70
2022-12-03T02:06:40.889Z,70.90
2022-12-03T02:09:30.885Z,70.20
2022-12-03T02:12:21.444Z,69.90
2022-12-03T02:15:13.510Z,70.20
2022-12-03T02:18:17.222Z,70.20
2022-12-03T02:21:09.692Z,69.70
2022-12-03T02:24:02.954Z,70.00
2022-12-03T02:27:22.429Z,70.20
2022-12-03T02:30:51.800Z,70.00
2022-12-03T02:34:04.617Z,70.30
2022-12-03T02:37:03.754Z,69.70
2022-12-03T02:39:59.833Z,70.00
2022-12-03T02:42:49.179Z,69.60
2022-12-03T02:45:40.128Z,69.60
2022-12-03T02:48:30.024Z,69.30
2022-12-03T02:51:19.157Z,69.40
2022-12-03T02:54:10.425Z,69.80
2022-12-03T02:57:00.425Z,69.60
2022-12-03T03:00:14.339Z,69.80
2022-12-03T03:03:06.837Z,69.90
2022-12-03T03:05:56.988Z,69.60
2022-12-03T03:08:46.490Z,69.90
2022-12-03T03:11:35.020Z,70.20
2022-12-03T03:14:25.349Z,70.50
2022-12-03T03:17:15.274Z,70.40
2022-12-03T03:20:08.319Z,70.30
2022-12-03T03:23:07.128Z,69.60
2022-12-03T03:26:06.017Z,69.70
2022-12-03T03:28:55.897Z,69.60
2022-12-03T03:31:53.191Z,68.60
2022-12-03T03:34:56.651Z,69.10
2022-12-03T03:37:46.113Z,69.10
2022-12-03T03:40:37.661Z,69.30
2022-12-03T03:43:29.398Z,69.30
2022-12-03T03:46:21.492Z,69.60
2022-12-03T03:49:13.901Z,69.80
2022-12-03T03:52:14.328Z,69.30
2022-12-03T03:55:07.375Z,69.40
2022-12-03T03:57:58.560Z,69.30
2022-12-03T04:00:53.225Z,69.70
2022-12-03T04:03:47.258Z,69.80
2022-12-03T04:06:39.382Z,69.70
2022-12-03T04:09:29.892Z,70.10
2022-12-03T04:12:38.464Z,70.30
2022-12-03T04:15:28.012Z,70.00
2022-12-03T04:18:34.036Z,70.10
2022-12-03T04:21:40.512Z,69.90
2022-12-03T04:24:30.442Z,69.90
2022-12-03T04:27:39.308Z,70.00
2022-12-03T04:30:34.568Z,69.90
2022-12-03T04:33:52.452Z,69.90
2022-12-03T04:37:17.052Z,70.00
2022-12-03T04:40:54.693Z,70.20
2022-12-03T04:44:27.889Z,69.80
2022-12-03T04:47:45.349Z,69.70
2022-12-03T04:50:33.730Z,69.60
2022-12-03T04:53:22.303Z,70.00
2022-12-03T04:56:11.803Z,70.20
2022-12-03T04:59:00.258Z,70.20
2022-12-03T05:01:49.912Z,70.50
2022-12-03T05:04:38.454Z,70.00
2022-12-03T05:07:26.787Z,69.60
2022-12-03T05:10:15.051Z,69.50
2022-12-03T05:13:03.529Z,69.50
2022-12-03T05:15:52.482Z,69.70
2022-12-03T05:18:42.455Z,69.10
2022-12-03T05:21:30.863Z,69.20
2022-12-03T05:24:19.362Z,69.50
2022-12-03T05:27:07.808Z,69.50
2022-12-03T05:29:56.368Z,69.40
2022-12-03T05:32:56.487Z,69.60
2022-12-03T05:36:22.222Z,69.60
2022-12-03T05:39:13.928Z,69.30
2022-12-03T05:42:22.104Z,69.00
2022-12-03T05:45:17.758Z,69.00
2022-12-03T05:48:10.593Z,69.00
2022-12-03T05:50:59.608Z,69.10
2022-12-03T05:53:50.686Z,69.30
2022-12-03T05:56:39.441Z,69.00
2022-12-03T05:59:27.848Z,68.80
2022-12-03T06:02:16.508Z,69.20
2022-12-03T06:05:05.134Z,69.10
2022-12-03T06:07:56.441Z,69.50
2022-12-03T06:10:49.891Z,70.10
2022-12-03T06:13:38.978Z,69.40
2022-12-03T06:16:27.864Z,69.80
2022-12-03T06:19:16.719Z,70.20
2022-12-03T06:22:06.087Z,70.40
2022-12-03T06:24:59.657Z,70.60
2022-12-03T06:27:54.575Z,70.00
2022-12-03T06:30:43.839Z,69.50
2022-12-03T06:33:35.320Z,69.20
2022-12-03T06:36:24.659Z,69.50
2022-12-03T06:39:15.520Z,69.40
2022-12-03T06:42:04.251Z,69.00
2022-12-03T06:44:54.312Z,68.50
2022-12-03T06:47:42.989Z,68.20
2022-12-03T06:50:31.670Z,68.50
2022-12-03T06:53:21.744Z,69.10
2022-12-03T06:56:10.274Z,68.80
2022-12-03T06:58:59.008Z,68.50
2022-12-03T07:01:51.721Z,68.50
2022-12-03T07:04:46.251Z,68.20
2022-12-03T07:07:35.126Z,67.60
2022-12-03T07:10:24.033Z,67.50
2022-12-03T07:13:12.875Z,67.10
2022-12-03T07:16:04.511Z,66.20
2022-12-03T07:19:27.600Z,66.30
2022-12-03T07:22:22.602Z,66.50
2022-12-03T07:28:44.102Z,66.60
2022-12-03T07:31:32.915Z,66.70
2022-12-03T07:34:24.181Z,66.70
2022-12-03T07:37:12.745Z,67.30
2022-12-03T07:40:02.560Z,67.20
2022-12-03T07:42:51.088Z,66.80
2022-12-03T07:45:41.241Z,66.80
2022-12-03T07:48:29.849Z,67.00
2022-12-03T07:51:21.682Z,66.90
2022-12-03T07:54:12.991Z,66.30
2022-12-03T07:57:02.138Z,66.50
2022-12-03T07:59:50.755Z,66.90
2022-12-03T08:02:39.726Z,66.90
2022-12-03T08:05:32.771Z,66.60
2022-12-03T08:08:47.962Z,67.10
2022-12-03T08:12:01.352Z,67.60
2022-12-03T08:14:53.599Z,67.40
2022-12-03T08:17:44.758Z,67.20
2022-12-03T08:20:39.828Z,67.30
2022-12-03T08:23:32.930Z,67.30
2022-12-03T08:26:23.789Z,66.70
2022-12-03T08:29:12.975Z,66.70
2022-12-03T08:32:05.675Z,67.30
2022-12-03T08:34:59.419Z,67.50
2022-12-03T08:37:57.443Z,67.50
2022-12-03T08:40:55.486Z,67.70
2022-12-03T08:43:49.764Z,68.00
2022-12-03T08:47:09.386Z,68.00
2022-12-03T08:50:04.496Z,68.10
2022-12-03T08:53:02.467Z,68.30
2022-12-03T08:55:57.690Z,68.40
2022-12-03T08:59:15.359Z,68.70
2022-12-03T09:02:25.398Z,68.80
2022-12-03T09:05:20.042Z,69.20
2022-12-03T09:08:14.950Z,68.60
2022-12-03T09:11:35.130Z,69.20
2022-12-03T09:14:54.376Z,69.40
2022-12-03T09:17:45.030Z,69.40
2022-12-03T09:20:33.578Z,69.40
2022-12-03T09:23:21.701Z,69.80
2022-12-03T09:26:10.043Z,69.50
2022-12-03T09:28:58.291Z,69.70
2022-12-03T09:31:48.276Z,69.50
2022-12-03T09:34:36.818Z,69.50
2022-12-03T09:37:25.226Z,69.80
2022-12-03T09:40:14.159Z,70.20
2022-12-03T09:43:02.849Z,70.00
2022-12-03T09:45:56.488Z,70.10
2022-12-03T09:48:54.765Z,70.20
2022-12-03T09:51:55.987Z,70.00
2022-12-03T09:54:47.553Z,70.00
2022-12-03T09:57:36.397Z,69.80
2022-12-03T10:00:26.319Z,69.80
2022-12-03T10:03:16.066Z,69.50
2022-12-03T10:06:06.501Z,68.90
2022-12-03T10:08:55.685Z,69.30
2022-12-03T10:11:44.216Z,69.60
2022-12-03T10:14:32.812Z,69.40
2022-12-03T10:17:21.214Z,68.80
2022-12-03T10:20:12.150Z,69.00
2022-12-03T10:23:01.816Z,69.20
2022-12-03T10:25:54.665Z,68.60
2022-12-03T10:28:50.725Z,67.50
2022-12-03T10:31:45.412Z,68.20
2022-12-03T10:34:53.582Z,67.60
2022-12-03T10:37:57.990Z,68.10
2022-12-03T10:40:51.061Z,67.90
2022-12-03T10:43:39.872Z,67.60
2022-12-03T10:46:28.314Z,67.10
2022-12-03T10:49:21.916Z,67.90
2022-12-03T10:52:26.334Z,68.40
2022-12-03T10:55:16.115Z,68.10
2022-12-03T10:58:08.121Z,68.10
2022-12-03T11:01:00.940Z,67.70
2022-12-03T11:04:01.849Z,67.30
2022-12-03T11:06:55.832Z,66.30
2022-12-03T11:09:49.124Z,66.60
2022-12-03T11:12:37.454Z,66.80
2022-12-03T11:15:42.905Z,67.00
2022-12-03T11:18:55.353Z,67.00
2022-12-03T11:21:58.510Z,67.20
2022-12-03T11:24:46.824Z,68.50
2022-12-03T11:27:36.641Z,68.50
2022-12-03T11:33:36.887Z,68.50
2022-12-03T11:36:47.821Z,69.10
2022-12-03T11:39:59.425Z,68.70
2022-12-03T11:42:48.109Z,68.50
2022-12-03T11:45:37.710Z,67.70
2022-12-03T11:48:25.988Z,68.00
2022-12-03T11:51:16.713Z,69.00
2022-12-03T11:54:05.115Z,68.20
2022-12-03T11:56:54.056Z,67.80
2022-12-03T11:59:57.198Z,66.90
2022-12-03T12:02:45.622Z,66.80
2022-12-03T12:05:34.400Z,66.80
2022-12-03T12:08:24.289Z,67.50
2022-12-03T12:11:19.505Z,67.80
2022-12-03T12:14:08.338Z,67.90
2022-12-03T12:16:58.341Z,67.40
2022-12-03T12:19:52.675Z,66.30
2022-12-03T12:22:42.717Z,66.70
2022-12-03T12:25:40.158Z,65.80
2022-12-03T12:28:28.363Z,65.20
2022-12-03T12:31:16.697Z,64.90
2022-12-03T12:40:07.905Z,64.50
2022-12-03T12:43:12.612Z,64.20
2022-12-03T12:46:46.153Z,62.80
2022-12-03T12:49:38.355Z,61.80
2022-12-03T12:52:38.533Z,62.30
2022-12-03T12:55:46.427Z,62.50
2022-12-03T12:59:02.657Z,62.00
2022-12-03T13:02:08.487Z,62.30
2022-12-03T13:05:10.975Z,62.40
2022-12-03T13:08:14.094Z,61.90
2022-12-03T13:11:06.363Z,61.90
2022-12-03T13:14:04.623Z,62.40
2022-12-03T13:17:21.680Z,62.60
2022-12-03T13:20:26.718Z,61.50
2022-12-03T13:24:14.455Z,61.10
2022-12-03T13:27:29.005Z,61.40
2022-12-03T13:30:28.899Z,61.30
2022-12-03T13:37:00.427Z,61.10
2022-12-03T13:40:19.555Z,61.80
2022-12-03T13:43:38.712Z,60.80
2022-12-03T13:46:48.072Z,61.00
2022-12-03T13:49:51.661Z,61.10
2022-12-03T13:52:49.678Z,59.60
2022-12-03T13:55:54.268Z,59.80
2022-12-03T13:58:52.309Z,60.30
2022-12-03T14:02:04.266Z,58.90
2022-12-03T14:05:15.147Z,59.00
2022-12-03T14:08:22.056Z,58.30
2022-12-03T14:11:35.392Z,58.10
2022-12-03T14:14:43.086Z,57.90
2022-12-03T14:17:50.705Z,58.50
2022-12-03T14:21:26.133Z,57.80
2022-12-03T14:27:34.075Z,59.30
2022-12-03T14:30:29.563Z,58.30
2022-12-03T14:33:23.693Z,59.90
2022-12-03T14:36:24.791Z,60.50
2022-12-03T14:39:16.820Z,60.10
2022-12-03T14:42:29.910Z,60.00
2022-12-03T14:45:29.040Z,60.10
2022-12-03T14:48:47.567Z,60.30
2022-12-03T14:52:03.699Z,59.50
2022-12-03T14:55:15.552Z,57.60
2022-12-03T14:58:11.663Z,57.80
2022-12-03T15:01:13.551Z,58.50
2022-12-03T15:04:11.607Z,59.00
2022-12-03T15:08:11.604Z,58.00
2022-12-03T15:10:48.957Z,58.40
2022-12-03T15:13:49.997Z,58.00
2022-12-03T15:16:46.465Z,59.20
2022-12-03T15:20:09.411Z,59.40
2022-12-03T15:23:18.138Z,59.10
2022-12-03T15:26:28.918Z,58.20
2022-12-03T15:32:29.049Z,58.60
2022-12-03T15:35:26.843Z,58.20
2022-12-03T15:38:40.746Z,59.10
2022-12-03T15:41:36.916Z,58.90
2022-12-03T15:44:53.214Z,59.20
2022-12-03T15:48:01.675Z,57.80
2022-12-03T15:51:12.932Z,57.70
2022-12-03T15:54:25.239Z,58.20
2022-12-03T15:57:33.481Z,58.60
2022-12-03T16:00:39.015Z,58.60
2022-12-03T16:03:43.103Z,59.10
2022-12-03T16:06:48.927Z,59.10
2022-12-03T16:10:26.133Z,59.70
2022-12-03T16:13:20.628Z,59.90
2022-12-03T16:16:35.006Z,59.90
2022-12-03T16:19:30.453Z,59.80
2022-12-03T16:22:54.752Z,59.60
2022-12-03T16:26:07.532Z,59.90
2022-12-03T16:29:09.036Z,60.40
2022-12-03T16:32:11.257Z,61.30
2022-12-03T16:35:14.827Z,61.00
2022-12-03T16:38:33.272Z,61.00
2022-12-03T16:41:53.923Z,61.00
2022-12-03T16:48:40.804Z,61.10
2022-12-03T16:54:54.762Z,60.40
2022-12-03T16:58:00.436Z,60.60
2022-12-03T17:04:21.735Z,61.20
2022-12-03T17:07:15.086Z,61.50
2022-12-03T17:10:06.246Z,61.60
2022-12-03T17:13:09.364Z,61.40
2022-12-03T17:16:12.050Z,61.20
2022-12-03T17:19:14.615Z,60.70
2022-12-03T17:22:21.929Z,60.00
2022-12-03T17:25:20.107Z,60.00
2022-12-03T17:28:24.267Z,60.00
2022-12-03T17:31:28.893Z,59.60
2022-12-03T17:34:30.385Z,58.80
2022-12-03T17:37:38.574Z,59.50
2022-12-03T17:41:12.954Z,59.80
2022-12-03T17:44:17.745Z,59.80
2022-12-03T17:47:26.759Z,60.10
2022-12-03T17:50:26.178Z,59.90
2022-12-03T17:53:31.300Z,59.50
2022-12-03T17:56:42.628Z,59.50
2022-12-03T18:00:03.495Z,60.00
2022-12-03T18:03:19.610Z,60.00
2022-12-03T18:09:45.664Z,59.30
2022-12-03T18:12:58.305Z,58.50
2022-12-03T18:16:09.318Z,58.60
2022-12-03T18:22:33.782Z,58.60
2022-12-03T18:25:27.806Z,59.60
2022-12-03T18:32:30.034Z,59.80
2022-12-03T18:35:50.238Z,59.90
2022-12-03T18:42:31.288Z,61.10
2022-12-03T18:45:47.486Z,61.40
2022-12-03T18:48:54.962Z,61.30
2022-12-03T18:52:28.179Z,60.70
2022-12-03T18:55:58.376Z,60.30
2022-12-03T19:02:45.962Z,60.80
2022-12-03T19:05:43.585Z,60.20
2022-12-03T19:09:06.206Z,60.00
2022-12-03T19:12:19.413Z,59.50
2022-12-03T19:21:33.855Z,59.80
2022-12-03T19:24:55.354Z,59.70
2022-12-03T19:35:30.938Z,61.20
2022-12-03T19:38:40.267Z,60.60
2022-12-03T19:41:47.006Z,61.20
2022-12-03T19:44:47.477Z,60.80
2022-12-03T19:47:49.311Z,61.20
2022-12-03T19:51:02.889Z,60.80
2022-12-03T19:54:20.696Z,60.50
2022-12-03T20:00:47.565Z,61.50
2022-12-03T20:03:51.230Z,61.60
2022-12-03T20:06:52.440Z,61.10
2022-12-03T20:09:54.569Z,60.20
2022-12-03T20:13:26.152Z,60.40
2022-12-03T20:16:26.983Z,60.30
2022-12-03T20:19:29.623Z,60.80
2022-12-03T20:22:27.931Z,60.60
2022-12-03T20:25:35.691Z,60.30
2022-12-03T20:28:39.314Z,61.10
2022-12-03T20:31:46.523Z,60.70
2022-12-03T20:34:39.717Z,60.50
2022-12-03T20:37:49.843Z,60.70
2022-12-03T20:40:50.878Z,60.80
2022-12-03T20:44:36.103Z,60.80
2022-12-03T20:47:33.686Z,60.60
2022-12-03T20:50:25.025Z,60.30
2022-12-03T20:53:44.814Z,60.40
2022-12-03T20:56:51.343Z,60.30
2022-12-03T20:59:49.759Z,60.40
2022-12-03T21:02:45.819Z,60.40
2022-12-03T21:05:53.280Z,60.40
2022-12-03T21:08:52.043Z,60.40
2022-12-03T21:12:01.077Z,59.70
2022-12-03T21:15:36.035Z,59.40
2022-12-03T21:19:05.547Z,58.40
2022-12-03T21:22:10.343Z,59.20
2022-12-03T21:25:04.550Z,60.20
2022-12-03T21:28:08.730Z,60.20
2022-12-03T21:31:26.219Z,60.30
2022-12-03T21:34:36.403Z,60.20
2022-12-03T21:37:43.892Z,60.30
2022-12-03T21:40:41.528Z,60.20
2022-12-03T21:43:55.393Z,59.70
2022-12-03T21:47:09.670Z,59.50
2022-12-03T21:50:28.347Z,59.80
2022-12-03T21:53:19.175Z,60.20
2022-12-03T21:56:31.119Z,60.60
2022-12-03T21:59:39.130Z,61.10
2022-12-03T22:02:37.925Z,61.10
2022-12-03T22:05:41.399Z,61.20
2022-12-03T22:08:41.483Z,61.20
2022-12-03T22:11:45.240Z,60.50
2022-12-03T22:14:53.768Z,61.20
2022-12-03T22:17:51.879Z,61.60
2022-12-03T22:20:48.167Z,61.20
2022-12-03T22:27:00.409Z,60.60
2022-12-03T22:30:07.955Z,60.90
2022-12-03T22:33:52.220Z,61.00
2022-12-03T22:36:54.109Z,60.40
2022-12-03T22:39:57.966Z,60.10
2022-12-03T22:42:51.880Z,60.10
2022-12-03T22:45:52.449Z,60.90
2022-12-03T22:49:07.839Z,61.00
2022-12-03T22:52:08.590Z,60.90
2022-12-03T22:55:08.509Z,60.70
2022-12-03T22:58:04.296Z,60.90
2022-12-03T23:01:10.242Z,60.40
2022-12-03T23:04:34.053Z,60.10
2022-12-03T23:07:47.386Z,59.80
2022-12-03T23:10:58.529Z,60.50
2022-12-03T23:13:54.071Z,60.20
2022-12-03T23:16:48.391Z,60.00
2022-12-03T23:19:51.169Z,59.60
2022-12-03T23:22:54.093Z,59.70
2022-12-03T23:26:07.824Z,60.00
2022-12-03T23:29:29.134Z,59.60
2022-12-03T23:32:32.484Z,60.10
2022-12-03T23:35:29.844Z,60.00
2022-12-03T23:38:29.032Z,60.20
2022-12-03T23:41:27.375Z,60.10
2022-12-03T23:44:31.486Z,60.50
2022-12-03T23:47:27.031Z,60.50
2022-12-03T23:50:34.348Z,60.30
2022-12-03T23:53:47.019Z,61.00
2022-12-03T23:56:47.285Z,61.10
2022-12-03T23:59:57.767Z,60.60
